Time;durP1;ratioP1;P1;durP2;ratioP2;P2;SDS_P1;SDS_P2;PMS_P1;PMS_P2;Temp;Humidity;BMP_temperature;BMP_pressure;BME280_temperature;BME280_humidity;BME280_pressure;Samples;Min_cycle;Max_cycle;Signal;HPM_P1;HPM_P2
2022/03/26 00:00:13;;;;;;;43.58;12.55;;;;;;;4.79;66.13;97924.69;5004391;28;20545;-62
2022/03/26 00:02:39;;;;;;;39.22;15.32;;;;;;;3.60;65.57;97741.63;5003274;28;20058;-57
2022/03/26 00:05:07;;;;;;;46.28;19.38;;;;;;;3.75;66.53;97779.59;5004665;28;20136;-61
2022/03/26 00:07:34;;;;;;;27.08;12.40;;;;;;;4.68;65.35;97923.31;5004934;28;20050;-57
2022/03/26 00:10:01;;;;;;;22.98;11.05;;;;;;;4.66;65.22;97926.38;5004743;28;20497;-61
2022/03/26 00:12:28;;;;;;;22.63;10.75;;;;;;;4.48;65.58;97925.41;5003561;28;20063;-61
2022/03/26 00:14:54;;;;;;;22.58;10.43;;;;;;;4.47;64.84;97932.00;5004521;28;20073;-55
2022/03/26 00:17:21;;;;;;;42.65;13.65;;;;;;;2.16;67.91;97654.06;5004616;28;20570;-60
2022/03/26 00:19:48;;;;;;;32.30;12.00;;;;;;;3.87;68.33;97925.09;5004262;28;20053;-62
2022/03/26 00:22:15;;;;;;;22.83;10.57;;;;;;;3.93;67.65;97918.44;5004325;28;20049;-56
2022/03/26 00:24:41;;;;;;;26.85;11.45;;;;;;;3.97;67.45;97918.59;5004194;28;20062;-60
2022/03/26 00:27:08;;;;;;;37.38;14.00;;;;;;;3.97;66.86;97919.41;5002712;28;20057;-55
2022/03/26 00:29:35;;;;;;;24.83;10.65;;;;;;;2.89;66.92;97766.13;5002880;28;20145;-60
2022/03/26 00:32:04;;;;;;;28.42;12.80;;;;;;;3.69;67.07;97917.81;5004689;28;20440;-55
2022/03/26 00:34:32;;;;;;;33.15;11.35;;;;;;;3.06;67.65;97838.31;5004121;28;20531;-60
2022/03/26 00:36:59;;;;;;;22.70;9.88;;;;;;;3.42;68.64;97917.81;5002590;28;20050;-57
2022/03/26 00:39:27;;;;;;;25.35;10.32;;;;;;;3.01;68.66;97857.53;5002390;28;20054;-55
2022/03/26 00:41:53;;;;;;;23.30;9.63;;;;;;;3.37;69.06;97937.06;4999220;28;20062;-55
2022/03/26 00:44:20;;;;;;;23.95;9.40;;;;;;;3.03;69.98;97868.19;4983180;28;20058;-61
2022/03/26 00:46:47;;;;;;;23.48;10.13;;;;;;;3.39;69.88;97912.94;4983120;28;20053;-57
2022/03/26 00:49:15;;;;;;;27.33;11.20;;;;;;;3.43;70.03;97935.84;4984830;28;20053;-56
2022/03/26 00:51:42;;;;;;;21.48;9.10;;;;;;;3.42;70.00;97942.44;4982654;28;20150;-60
2022/03/26 00:54:10;;;;;;;21.02;9.07;;;;;;;3.42;69.60;97945.19;4982614;28;20133;-57
2022/03/26 00:56:39;;;;;;;16.83;8.27;;;;;;;3.21;70.39;97915.75;4982902;28;20050;-61
2022/03/26 00:59:07;;;;;;;20.58;9.38;;;;;;;3.24;69.89;97937.84;4984072;28;20050;-55
2022/03/26 01:01:34;;;;;;;20.33;8.70;;;;;;;3.23;69.63;97941.72;4984012;28;20050;-62
2022/03/26 01:04:02;;;;;;;21.27;8.45;;;;;;;3.24;70.07;97937.06;4983931;28;20058;-55
2022/03/26 01:06:28;;;;;;;21.85;9.80;;;;;;;3.17;70.34;97937.44;4984430;28;20513;-61
2022/03/26 01:08:56;;;;;;;21.70;8.50;;;;;;;3.16;70.39;97952.25;4984007;28;20065;-62
2022/03/26 01:11:22;;;;;;;21.83;9.07;;;;;;;3.12;70.98;97970.38;4982925;28;20058;-56
2022/03/26 01:13:53;;;;;;;23.88;9.32;;;;;;;3.07;70.62;97948.56;4983172;28;20054;-58
2022/03/26 01:16:19;;;;;;;16.63;8.43;;;;;;;3.00;70.16;97953.63;4984115;28;20058;-56
2022/03/26 01:18:47;;;;;;;28.70;11.60;;;;;;;2.78;71.21;97917.88;4982675;28;20448;-62
2022/03/26 01:21:14;;;;;;;26.10;9.45;;;;;;;2.67;71.37;97905.47;4983659;28;20058;-62
2022/03/26 01:23:41;;;;;;;17.63;8.38;;;;;;;3.04;70.71;97960.94;4982419;28;20058;-61
2022/03/26 01:26:08;;;;;;;19.00;9.15;;;;;;;3.06;70.12;97963.38;4983736;28;20054;-55
2022/03/26 01:28:35;;;;;;;19.27;8.50;;;;;;;2.94;70.02;97947.41;4982398;28;20065;-56
2022/03/26 01:31:02;;;;;;;20.65;9.93;;;;;;;2.21;69.93;97837.06;4982201;28;20050;-56
2022/03/26 01:33:29;;;;;;;23.90;9.80;;;;;;;2.97;70.77;97965.16;4983729;28;20054;-56
2022/03/26 01:35:56;;;;;;;19.13;9.63;;;;;;;2.77;71.09;97938.13;4984122;28;20134;-62
2022/03/26 01:38:22;;;;;;;28.50;10.07;;;;;;;2.88;71.08;97970.50;4984222;28;20062;-61
2022/03/26 01:40:49;;;;;;;22.42;10.75;;;;;;;2.92;71.04;97973.47;4983860;28;20061;-60
2022/03/26 01:43:16;;;;;;;23.67;10.95;;;;;;;2.55;71.22;97940.66;4983901;28;20058;-55
2022/03/26 01:45:43;;;;;;;18.77;9.55;;;;;;;2.79;71.61;97968.72;4982414;28;20516;-56
2022/03/26 01:48:10;;;;;;;21.33;9.77;;;;;;;2.96;70.91;97985.41;4983630;28;20514;-61
2022/03/26 01:50:39;;;;;;;22.52;9.38;;;;;;;2.97;70.16;97992.53;4983867;28;20330;-55
2022/03/26 01:53:06;;;;;;;23.60;10.07;;;;;;;2.89;70.45;97985.00;4983936;28;20047;-55
2022/03/26 01:55:32;;;;;;;18.77;9.10;;;;;;;2.92;70.32;97996.13;4983823;28;20049;-57
2022/03/26 01:57:59;;;;;;;19.40;8.95;;;;;;;2.87;70.13;97992.69;4987076;28;20421;-61
2022/03/26 02:00:28;;;;;;;23.40;9.30;;;;;;;2.25;70.91;97924.72;4987057;28;20559;-60
2022/03/26 02:02:55;;;;;;;17.98;7.50;;;;;;;2.76;70.83;97993.94;4987206;28;20050;-59
2022/03/26 02:05:22;;;;;;;20.02;9.43;;;;;;;2.37;71.68;97949.69;4991077;28;20060;-61
2022/03/26 02:07:50;;;;;;;18.35;8.60;;;;;;;2.53;71.44;97986.66;4988525;28;20053;-56
2022/03/26 02:10:18;;;;;;;21.40;9.45;;;;;;;2.51;71.53;97995.13;4986894;28;20054;-62
2022/03/26 02:12:48;;;;;;;25.90;10.05;;;;;;;2.19;70.88;97953.22;4985709;28;20050;-56
2022/03/26 02:15:16;;;;;;;24.48;10.45;;;;;;;2.39;70.99;97997.50;4986958;28;20058;-57
2022/03/26 02:17:43;;;;;;;18.30;8.88;;;;;;;2.26;71.84;97994.69;4986849;28;20057;-61
2022/03/26 02:20:12;;;;;;;16.80;8.27;;;;;;;2.20;71.86;98001.31;4987667;28;20165;-55
2022/03/26 02:22:39;;;;;;;18.85;8.43;;;;;;;2.17;72.85;98004.63;4985750;28;20441;-61
2022/03/26 02:25:07;;;;;;;20.20;9.20;;;;;;;2.20;72.95;97998.56;4985353;28;20073;-60
2022/03/26 02:27:34;;;;;;;21.23;8.75;;;;;;;2.11;72.87;98001.16;4986689;28;20066;-61
2022/03/26 02:30:02;;;;;;;19.80;8.48;;;;;;;1.60;74.19;97955.63;4986783;28;20046;-61
2022/03/26 02:32:29;;;;;;;25.73;9.05;;;;;;;2.00;73.84;98017.97;4985255;28;20050;-54
2022/03/26 02:34:56;;;;;;;20.10;8.38;;;;;;;1.92;74.20;98013.13;4985556;28;20061;-61
2022/03/26 02:37:33;;;;;;;25.95;10.05;;;;;;;1.80;73.30;97999.91;4986927;28;20589;-61
2022/03/26 02:40:04;;;;;;;21.38;8.93;;;;;;;1.94;74.39;98021.88;4985220;28;20142;-61
2022/03/26 02:42:31;;;;;;;20.55;8.85;;;;;;;1.80;74.45;98015.47;5000486;28;20132;-57
2022/03/26 02:44:58;;;;;;;20.42;8.60;;;;;;;1.88;74.27;98025.75;5004467;28;20057;-55
2022/03/26 02:47:25;;;;;;;24.77;8.23;;;;;;;1.82;73.70;98037.84;5006133;28;20049;-55
2022/03/26 02:49:51;;;;;;;24.40;8.60;;;;;;;1.81;74.15;98017.91;5004660;28;20085;-56
2022/03/26 02:52:18;;;;;;;24.10;9.75;;;;;;;1.68;75.93;98013.13;5006215;28;20057;-55
2022/03/26 02:54:45;;;;;;;19.17;9.30;;;;;;;1.87;74.14;98032.31;5004736;28;20104;-56
2022/03/26 02:57:12;;;;;;;20.67;8.68;;;;;;;1.86;74.14;98025.22;5006403;28;20069;-55
2022/03/26 02:59:38;;;;;;;24.80;9.55;;;;;;;1.01;74.04;97904.94;5005697;28;20064;-61
2022/03/26 03:02:09;;;;;;;16.65;8.52;;;;;;;1.45;73.99;97965.59;5006166;28;20492;-61
2022/03/26 03:04:36;;;;;;;21.17;8.57;;;;;;;1.62;74.51;97997.09;5005981;28;20608;-57
2022/03/26 03:07:03;;;;;;;19.85;9.30;;;;;;;1.90;74.31;98031.75;5003610;28;20436;-62
2022/03/26 03:09:30;;;;;;;24.77;10.65;;;;;;;1.93;73.24;98025.72;5004212;28;20508;-61
2022/03/26 03:11:58;;;;;;;24.48;11.88;;;;;;;1.84;73.93;98032.91;5005741;28;20062;-61
2022/03/26 03:14:25;;;;;;;23.08;10.77;;;;;;;1.76;74.09;98036.25;5006030;28;20054;-58
2022/03/26 03:16:52;;;;;;;21.73;10.65;;;;;;;1.66;74.45;98034.44;5005843;28;20147;-57
2022/03/26 03:19:19;;;;;;;26.92;13.35;;;;;;;1.65;74.82;98034.75;5003889;28;20050;-61
2022/03/26 03:21:46;;;;;;;27.25;11.70;;;;;;;1.70;74.18;98021.03;5005368;28;20061;-62
2022/03/26 03:24:13;;;;;;;20.13;7.15;;;;;;;1.28;74.47;98044.38;5005033;28;20087;-61
2022/03/26 03:26:39;;;;;;;22.02;10.07;;;;;;;0.66;77.78;98044.31;5003622;28;20053;-56
2022/03/26 03:29:06;;;;;;;23.48;9.63;;;;;;;0.92;78.09;98037.59;5004877;28;20536;-60
2022/03/26 03:31:33;;;;;;;22.65;9.55;;;;;;;0.96;77.94;98043.28;5005158;28;20536;-56
2022/03/26 03:34:00;;;;;;;20.63;9.32;;;;;;;0.28;79.36;98046.97;5003738;28;20136;-61
2022/03/26 03:36:27;;;;;;;26.25;9.35;;;;;;;0.51;78.77;98051.75;5005286;28;20054;-62
2022/03/26 03:38:54;;;;;;;16.88;8.85;;;;;;;0.17;78.44;97994.47;5004505;28;20530;-61
2022/03/26 03:41:21;;;;;;;26.17;8.55;;;;;;;0.76;79.36;98055.16;5000836;28;20497;-61
2022/03/26 03:43:47;;;;;;;20.95;7.63;;;;;;;-0.41;79.26;97946.28;4985126;28;20054;-55
2022/03/26 03:46:14;;;;;;;19.30;8.43;;;;;;;-0.02;79.08;97982.59;4983674;28;20065;-61
2022/03/26 03:48:41;;;;;;;20.50;9.27;;;;;;;0.57;79.81;98062.34;4985263;28;20097;-60
2022/03/26 03:51:08;;;;;;;26.90;9.98;;;;;;;0.71;79.37;98057.91;4985159;28;20050;-60
2022/03/26 03:53:35;;;;;;;29.50;12.57;;;;;;;0.77;79.11;98067.69;4985169;28;20054;-61
2022/03/26 03:56:02;;;;;;;28.42;10.35;;;;;;;0.30;79.63;98070.13;4985347;28;20964;-55
2022/03/26 03:58:29;;;;;;;22.40;10.68;;;;;;;0.43;80.59;98069.50;4985496;28;20056;-55
2022/03/26 04:01:01;;;;;;;20.35;9.73;;;;;;;0.53;79.69;98072.19;4985026;28;20057;-57
2022/03/26 04:03:28;;;;;;;25.70;10.15;;;;;;;0.58;79.58;98074.91;4984813;28;20065;-60
2022/03/26 04:05:55;;;;;;;23.98;9.55;;;;;;;0.72;77.77;98080.53;4984924;28;20050;-61
2022/03/26 04:08:22;;;;;;;22.60;9.57;;;;;;;0.73;77.62;98076.69;4985029;28;20509;-61
2022/03/26 04:10:48;;;;;;;23.45;9.07;;;;;;;0.66;77.81;98071.59;4985007;28;20051;-54
2022/03/26 04:13:15;;;;;;;16.92;8.55;;;;;;;0.74;77.66;98084.63;4985350;28;20054;-55
2022/03/26 04:15:42;;;;;;;22.15;8.85;;;;;;;0.76;77.41;98076.97;4985159;28;20084;-60
2022/03/26 04:18:09;;;;;;;22.30;10.00;;;;;;;0.75;77.71;98080.78;4984742;28;20137;-56
2022/03/26 04:20:36;;;;;;;23.48;9.73;;;;;;;0.67;78.19;98100.47;4984519;28;20065;-62
2022/03/26 04:23:02;;;;;;;26.80;10.40;;;;;;;0.56;78.38;98058.00;4983456;28;20077;-55
2022/03/26 04:25:31;;;;;;;27.52;12.95;;;;;;;0.82;77.55;98089.47;4984313;28;20054;-62
2022/03/26 04:27:58;;;;;;;35.13;12.98;;;;;;;0.42;78.19;98020.75;4984316;28;20062;-63
2022/03/26 04:30:25;;;;;;;24.92;10.88;;;;;;;0.89;77.28;98087.25;4984721;28;20102;-62
2022/03/26 04:32:52;;;;;;;25.35;10.73;;;;;;;0.93;76.95;98093.75;4984588;28;20059;-55
2022/03/26 04:35:19;;;;;;;21.50;9.70;;;;;;;0.91;77.56;98084.22;4984063;28;20050;-56
2022/03/26 04:37:46;;;;;;;24.85;9.65;;;;;;;0.91;76.29;98090.50;4984715;28;20054;-62
2022/03/26 04:40:14;;;;;;;30.17;13.82;;;;;;;0.95;75.57;98097.00;4983975;28;20050;-63
2022/03/26 04:42:42;;;;;;;46.03;18.65;;;;;;;0.35;77.15;98004.69;4999144;28;20054;-56
2022/03/26 04:45:09;;;;;;;39.95;18.75;;;;;;;1.02;77.37;98094.78;5002280;28;20137;-55
2022/03/26 04:47:37;;;;;;;43.75;18.58;;;;;;;1.01;78.93;98090.41;5004549;28;20056;-55
2022/03/26 04:50:06;;;;;;;28.83;13.52;;;;;;;1.17;77.31;98091.94;5002940;28;20081;-55
2022/03/26 04:52:33;;;;;;;40.75;14.88;;;;;;;1.29;76.48;98105.22;5004180;28;20050;-63
2022/03/26 04:55:00;;;;;;;34.13;15.48;;;;;;;1.34;77.29;98106.00;5003465;28;20056;-63
2022/03/26 04:57:27;;;;;;;28.15;14.60;;;;;;;1.21;76.30;98081.28;5003784;28;20054;-56
2022/03/26 04:59:53;;;;;;;31.23;15.68;;;;;;;1.54;76.03;98105.03;5003854;28;20507;-63
2022/03/26 05:02:20;;;;;;;40.42;16.98;;;;;;;1.53;75.62;98106.94;5003451;28;20050;-56
2022/03/26 05:04:47;;;;;;;33.10;13.90;;;;;;;1.66;75.65;98108.16;5003535;28;20058;-56
2022/03/26 05:10:10;;;;;;;30.67;13.55;;;;;;;2.00;73.51;98119.06;5003094;28;20050;-56
2022/03/26 05:12:36;;;;;;;36.80;14.88;;;;;;;2.14;73.51;98125.44;5003905;28;20475;-55
2022/03/26 05:15:03;;;;;;;34.42;17.85;;;;;;;2.28;72.68;98121.75;5002261;28;20053;-62
2022/03/26 05:17:31;;;;;;;38.92;16.75;;;;;;;1.35;71.98;97975.81;5003223;28;20060;-62
2022/03/26 05:19:58;;;;;;;50.75;22.00;;;;;;;2.50;72.15;98129.41;5002301;28;20046;-63
2022/03/26 05:22:24;;;;;;;29.33;13.45;;;;;;;2.50;70.51;98086.47;5002482;28;20050;-56
2022/03/26 05:24:53;;;;;;;34.28;14.32;;;;;;;2.75;70.38;98142.78;5003166;28;20053;-62
2022/03/26 05:27:20;;;;;;;41.35;14.70;;;;;;;2.54;70.03;98082.06;5002083;28;20061;-63
2022/03/26 05:29:48;;;;;;;40.03;16.85;;;;;;;3.12;69.73;98129.13;5003810;28;20497;-62
2022/03/26 05:32:16;;;;;;;34.45;16.40;;;;;;;3.30;69.04;98128.31;5007795;28;20054;-55
2022/03/26 05:34:44;;;;;;;37.35;17.02;;;;;;;3.48;68.07;98130.22;5007353;28;20046;-62
2022/03/26 05:37:12;;;;;;;29.85;14.70;;;;;;;3.59;67.76;98131.66;5007313;28;20061;-55
2022/03/26 05:39:39;;;;;;;29.13;14.40;;;;;;;3.39;68.54;98118.31;5007328;28;20054;-62
2022/03/26 05:42:07;;;;;;;34.35;16.33;;;;;;;3.26;68.67;98078.00;4997505;28;20093;-55
2022/03/26 05:44:33;;;;;;;34.25;16.52;;;;;;;3.42;66.85;98054.72;4987405;28;20058;-62
2022/03/26 05:47:05;;;;;;;32.97;16.00;;;;;;;4.10;67.54;98137.91;4987489;28;20459;-63
2022/03/26 05:49:31;;;;;;;42.13;16.70;;;;;;;4.18;66.08;98137.22;4987207;28;20061;-62
2022/03/26 05:51:58;;;;;;;33.85;16.63;;;;;;;4.17;66.32;98138.31;4987386;28;20433;-56
2022/03/26 05:54:25;;;;;;;31.20;15.05;;;;;;;3.45;66.42;97982.91;4987358;28;20046;-55
2022/03/26 05:56:52;;;;;;;34.80;15.80;;;;;;;4.57;66.13;98137.53;4987574;28;20081;-63
2022/03/26 05:59:23;;;;;;;30.90;14.75;;;;;;;4.14;65.98;98066.84;4987402;28;20070;-63
2022/03/26 06:01:51;;;;;;;29.42;13.52;;;;;;;4.62;67.04;98140.19;4985728;28;20057;-57
2022/03/26 06:04:18;;;;;;;27.27;13.63;;;;;;;4.79;66.23;98139.56;4985475;28;20065;-62
2022/03/26 06:06:44;;;;;;;31.60;13.75;;;;;;;4.96;65.23;98139.78;4985682;28;20058;-62
2022/03/26 06:09:11;;;;;;;31.85;14.60;;;;;;;4.51;66.34;98122.31;4987477;28;20441;-56
2022/03/26 06:11:38;;;;;;;25.40;12.73;;;;;;;4.82;66.34;98138.16;4989605;28;20049;-56
2022/03/26 06:14:06;;;;;;;36.17;13.82;;;;;;;5.23;64.65;98138.91;4986434;28;20058;-64
2022/03/26 06:16:34;;;;;;;30.38;13.90;;;;;;;5.37;64.02;98115.75;4985814;28;20069;-56
2022/03/26 06:19:03;;;;;;;32.05;15.45;;;;;;;5.76;63.46;98131.56;4990716;28;20488;-59
2022/03/26 06:21:30;;;;;;;48.53;19.70;;;;;;;5.50;62.63;98073.66;4998172;28;20060;-63
2022/03/26 06:23:58;;;;;;;40.28;20.63;;;;;;;6.13;61.83;98142.22;5004436;28;20065;-59
2022/03/26 06:26:26;;;;;;;35.95;18.17;;;;;;;6.28;61.16;98141.78;5006120;28;20081;-64
2022/03/26 06:28:54;;;;;;;45.53;19.95;;;;;;;6.45;60.20;98141.88;5002643;28;20062;-56
2022/03/26 06:31:21;;;;;;;41.90;20.38;;;;;;;6.73;60.13;98140.56;4992528;28;20065;-56
2022/03/26 06:33:48;;;;;;;47.38;21.92;;;;;;;6.88;59.13;98137.34;4984486;28;20047;-56
2022/03/26 06:36:15;;;;;;;38.97;20.65;;;;;;;7.06;59.01;98122.50;4984231;28;20140;-64
2022/03/26 06:38:44;;;;;;;47.45;20.98;;;;;;;7.32;58.58;98125.25;4985007;28;20704;-56
2022/03/26 06:41:11;;;;;;;57.22;27.20;;;;;;;7.59;57.89;98142.31;4985368;28;20065;-64
2022/03/26 06:43:40;;;;;;;52.53;24.10;;;;;;;7.82;57.28;98145.72;4986408;28;20080;-64
2022/03/26 06:46:07;;;;;;;42.70;22.13;;;;;;;8.02;56.21;98139.53;4986228;28;20081;-57
2022/03/26 06:48:35;;;;;;;45.63;21.75;;;;;;;7.71;55.80;98079.03;4986215;28;20573;-64
2022/03/26 06:51:04;;;;;;;46.63;20.95;;;;;;;8.26;55.80;98139.03;4986188;28;20438;-64
2022/03/26 06:53:33;;;;;;;38.40;18.70;;;;;;;7.99;55.44;98112.59;4986541;28;20064;-64
2022/03/26 06:56:01;;;;;;;36.92;20.30;;;;;;;8.23;55.81;98147.97;4986351;28;20050;-64
2022/03/26 06:58:28;;;;;;;32.85;16.42;;;;;;;7.15;56.34;98006.78;4986648;28;20424;-56
2022/03/26 07:00:55;;;;;;;40.97;16.85;;;;;;;8.36;56.54;98150.53;4984995;28;20565;-56
2022/03/26 07:03:24;;;;;;;33.85;16.35;;;;;;;8.17;55.17;98096.81;4986061;28;20096;-64
2022/03/26 07:05:51;;;;;;;35.13;17.35;;;;;;;8.35;55.97;98143.38;4984714;28;20160;-57
2022/03/26 07:08:18;;;;;;;32.80;16.33;;;;;;;8.55;55.64;98152.91;4986255;28;20051;-57
2022/03/26 07:10:46;;;;;;;33.38;16.25;;;;;;;8.14;55.83;98059.63;4985697;28;20054;-57
2022/03/26 07:13:14;;;;;;;28.25;14.77;;;;;;;9.13;54.63;98148.25;4985847;28;20062;-61
2022/03/26 07:15:42;;;;;;;21.98;11.20;;;;;;;8.73;52.79;98104.75;4985777;28;20050;-62
2022/03/26 07:18:11;;;;;;;20.20;11.77;;;;;;;8.90;52.71;98126.75;4985967;28;20061;-58
2022/03/26 07:20:39;;;;;;;27.45;13.05;;;;;;;9.09;51.98;98091.19;4984271;28;20061;-63
2022/03/26 07:23:06;;;;;;;24.15;11.52;;;;;;;9.47;51.75;98136.16;4984500;28;20050;-62
2022/03/26 07:25:33;;;;;;;26.70;13.18;;;;;;;9.01;53.33;98139.03;4985126;28;20069;-62
2022/03/26 07:28:01;;;;;;;24.85;13.05;;;;;;;9.10;52.85;98137.06;4985292;28;20072;-56
2022/03/26 07:30:28;;;;;;;26.67;12.18;;;;;;;8.63;53.93;98085.81;4985369;28;20054;-58
2022/03/26 07:32:55;;;;;;;30.80;12.13;;;;;;;9.18;52.71;98116.84;4985373;28;20061;-57
2022/03/26 07:35:23;;;;;;;21.15;11.77;;;;;;;9.10;51.93;98103.91;4985334;28;20062;-57
2022/03/26 07:37:50;;;;;;;24.45;11.65;;;;;;;8.67;51.84;98042.53;4985647;28;20061;-57
2022/03/26 07:40:17;;;;;;;25.33;11.65;;;;;;;9.33;52.02;98132.84;4987408;28;20060;-57
2022/03/26 07:42:44;;;;;;;22.85;12.45;;;;;;;9.25;51.17;98083.94;4989590;28;20057;-57
2022/03/26 07:45:11;;;;;;;20.65;11.82;;;;;;;9.96;50.07;98131.66;4982431;28;20081;-61
2022/03/26 07:47:38;;;;;;;18.65;10.07;;;;;;;10.08;49.24;98124.28;4985750;28;20529;-62
2022/03/26 07:50:06;;;;;;;24.60;10.90;;;;;;;9.66;48.83;98072.88;4984853;28;20074;-62
2022/03/26 07:52:33;;;;;;;28.00;11.65;;;;;;;10.13;48.92;98126.03;4984776;28;20069;-57
2022/03/26 07:55:01;;;;;;;15.55;9.43;;;;;;;10.24;46.98;98122.47;4985166;28;20054;-57
2022/03/26 07:57:28;;;;;;;25.02;10.60;;;;;;;10.15;46.93;98116.22;4985229;28;20050;-57
2022/03/26 07:59:55;;;;;;;18.20;9.27;;;;;;;10.44;45.98;98091.16;4983269;28;20061;-61
2022/03/26 08:02:22;;;;;;;25.23;11.07;;;;;;;10.84;45.52;98130.09;4983529;28;20060;-56
2022/03/26 08:04:49;;;;;;;19.23;10.38;;;;;;;10.48;44.53;98067.13;4984732;28;20450;-64
2022/03/26 08:07:16;;;;;;;20.27;11.35;;;;;;;10.28;45.09;98073.56;4985608;28;20097;-55
2022/03/26 08:09:43;;;;;;;16.23;9.32;;;;;;;10.98;44.70;98113.09;4984632;28;20065;-56
2022/03/26 08:12:11;;;;;;;18.25;9.95;;;;;;;11.12;44.51;98130.19;4999366;28;20054;-66
2022/03/26 08:14:37;;;;;;;21.30;9.65;;;;;;;10.31;45.21;98083.97;4984530;28;20054;-56
2022/03/26 08:17:05;;;;;;;31.75;16.58;;;;;;;10.60;44.62;98042.22;4984689;28;20457;-57
2022/03/26 08:19:34;;;;;;;21.13;10.98;;;;;;;11.45;43.64;98111.44;4982904;28;20441;-56
2022/03/26 08:22:03;;;;;;;18.55;9.25;;;;;;;11.16;42.86;98042.41;4985084;28;20138;-57
2022/03/26 08:24:30;;;;;;;21.08;10.73;;;;;;;11.69;42.78;98108.63;4983254;28;20480;-56
2022/03/26 08:26:57;;;;;;;21.40;9.60;;;;;;;11.94;42.05;98112.94;4982955;28;20065;-66
2022/03/26 08:29:25;;;;;;;21.38;9.85;;;;;;;12.10;41.58;98102.69;4984111;28;20060;-65
2022/03/26 08:31:52;;;;;;;19.85;10.70;;;;;;;11.85;40.97;98045.66;4984243;28;20501;-56
2022/03/26 08:34:20;;;;;;;18.67;10.73;;;;;;;11.82;40.94;98015.84;4982693;28;20336;-65
2022/03/26 08:36:47;;;;;;;17.33;10.10;;;;;;;12.38;40.21;98089.56;4984894;28;20084;-65
2022/03/26 08:39:14;;;;;;;21.05;10.43;;;;;;;12.51;40.78;98068.88;4984509;28;20054;-65
2022/03/26 08:41:41;;;;;;;16.20;9.10;;;;;;;12.69;39.54;98097.97;4984525;28;20169;-56
2022/03/26 08:44:09;;;;;;;19.65;9.95;;;;;;;12.74;38.74;98088.53;4982948;28;20050;-56
2022/03/26 08:46:36;;;;;;;17.08;9.73;;;;;;;12.67;38.81;98091.94;4984311;28;20065;-56
2022/03/26 08:49:04;;;;;;;18.05;9.50;;;;;;;12.89;38.97;98082.97;4982793;28;20058;-65
2022/03/26 08:51:31;;;;;;;20.05;8.57;;;;;;;13.11;38.10;98087.91;4966586;28;20082;-66
2022/03/26 08:53:58;;;;;;;18.65;10.68;;;;;;;13.09;38.02;98081.88;4984142;28;20050;-56
2022/03/26 08:56:25;;;;;;;16.85;9.05;;;;;;;12.14;38.27;98073.84;4984136;28;20073;-57
2022/03/26 08:58:52;;;;;;;14.38;8.93;;;;;;;12.09;37.90;98020.53;4982617;28;20054;-59
2022/03/26 09:01:19;;;;;;;14.18;8.88;;;;;;;12.61;38.30;98071.13;4982268;28;20502;-55
2022/03/26 09:03:50;;;;;;;18.65;9.38;;;;;;;12.67;37.69;98058.59;4984328;28;20090;-56
2022/03/26 09:06:18;;;;;;;15.90;9.05;;;;;;;10.97;36.38;97745.56;4985679;28;20414;-65
2022/03/26 09:08:45;;;;;;;17.60;9.45;;;;;;;12.94;36.39;98029.03;4988452;28;20148;-56
2022/03/26 09:11:12;;;;;;;17.17;8.68;;;;;;;13.09;36.19;98058.81;4988123;28;20433;-65
2022/03/26 09:13:39;;;;;;;14.23;8.98;;;;;;;13.29;36.62;98046.59;4986698;28;20129;-65
2022/03/26 09:16:06;;;;;;;12.77;7.25;;;;;;;13.46;34.74;98055.31;4986510;28;20050;-58
2022/03/26 09:18:33;;;;;;;16.10;7.70;;;;;;;13.63;34.17;98046.53;4988675;28;20414;-65
2022/03/26 09:20:59;;;;;;;12.93;7.68;;;;;;;13.87;33.00;98031.50;4986521;28;20050;-55
2022/03/26 09:23:31;;;;;;;17.13;8.10;;;;;;;13.93;33.89;98013.31;4988351;28;20141;-65
2022/03/26 09:25:59;;;;;;;10.77;6.97;;;;;;;14.13;31.51;98020.47;4986294;28;20065;-56
2022/03/26 09:28:26;;;;;;;10.43;6.82;;;;;;;14.06;28.75;97991.69;4987704;28;20445;-55
2022/03/26 09:30:53;;;;;;;14.70;7.75;;;;;;;14.52;30.25;98043.53;4987638;28;20050;-56
2022/03/26 09:33:21;;;;;;;14.93;7.28;;;;;;;14.60;29.64;98017.38;4987678;28;20078;-57
2022/03/26 09:35:48;;;;;;;12.85;6.93;;;;;;;14.61;29.57;97980.75;4987409;28;20424;-65
2022/03/26 09:38:15;;;;;;;9.18;6.22;;;;;;;15.03;28.56;98025.25;4987549;28;20501;-55
2022/03/26 09:40:43;;;;;;;12.48;8.18;;;;;;;15.01;27.95;98034.00;4987615;28;20060;-56
2022/03/26 09:43:12;;;;;;;13.95;7.38;;;;;;;14.93;29.21;98020.31;4996448;28;20051;-64
2022/03/26 09:45:39;;;;;;;13.38;7.20;;;;;;;15.00;28.90;98020.44;4987469;28;20054;-65
2022/03/26 09:48:06;;;;;;;10.55;7.05;;;;;;;14.90;29.37;97973.63;4987516;28;20053;-65
2022/03/26 09:50:34;;;;;;;12.45;7.05;;;;;;;15.31;28.18;98011.69;4986771;28;20053;-64
2022/03/26 09:53:01;;;;;;;8.98;7.30;;;;;;;15.20;28.71;98007.97;4985957;28;20058;-64
2022/03/26 09:55:28;;;;;;;13.38;7.63;;;;;;;14.76;29.22;98004.09;4986757;28;20046;-57
2022/03/26 09:57:55;;;;;;;11.93;7.35;;;;;;;15.13;29.54;98002.25;4986564;28;20054;-57
2022/03/26 10:00:22;;;;;;;11.25;7.35;;;;;;;14.81;29.66;97956.34;4985659;28;20058;-66
2022/03/26 10:02:48;;;;;;;11.40;6.43;;;;;;;15.05;26.84;97976.25;4985568;28;20053;-57
2022/03/26 10:05:19;;;;;;;11.13;7.38;;;;;;;15.02;28.28;97942.69;4985107;28;20054;-56
2022/03/26 10:07:48;;;;;;;15.95;7.80;;;;;;;15.31;28.05;97943.88;4986283;28;20525;-61
2022/03/26 10:10:23;;;;;;;11.10;7.32;;;;;;;15.38;28.15;97974.72;4986622;28;20077;-57
2022/03/26 10:12:52;;;;;;;10.32;6.72;;;;;;;15.76;27.81;97980.78;4987237;28;20381;-60
2022/03/26 10:15:19;;;;;;;12.00;6.45;;;;;;;15.51;28.39;97932.22;4986471;28;20482;-57
2022/03/26 10:17:46;;;;;;;11.07;6.85;;;;;;;15.66;27.25;97916.44;4986998;28;20493;-57
2022/03/26 10:20:14;;;;;;;10.93;7.00;;;;;;;16.03;26.55;97961.91;4985331;28;20061;-65
2022/03/26 10:22:48;;;;;;;12.48;6.97;;;;;;;15.56;27.05;97873.22;4986363;28;20149;-64
2022/03/26 10:25:18;;;;;;;10.40;6.20;;;;;;;16.14;27.08;97963.66;4985208;28;20109;-57
2022/03/26 10:27:49;;;;;;;10.88;8.10;;;;;;;16.15;27.65;97959.69;4986317;28;20096;-57
2022/03/26 10:32:38;;;;;;;11.35;7.05;;;;;;;15.80;27.85;97925.78;4986244;28;20066;-65
2022/03/26 10:33:27;;;;;;;10.85;6.97;;;;;;;15.91;26.84;97962.19;4986446;28;20138;-58
2022/03/26 10:36:03;;;;;;;11.55;7.07;;;;;;;15.85;27.21;97961.75;4986698;28;20050;-64
2022/03/26 10:38:32;;;;;;;9.40;6.78;;;;;;;15.96;27.16;97945.91;4985181;28;20051;-64
2022/03/26 10:41:06;;;;;;;10.18;7.03;;;;;;;16.09;26.84;97950.00;4985009;28;20497;-66
2022/03/26 10:43:34;;;;;;;9.57;7.03;;;;;;;16.13;26.36;97917.31;5001611;28;20066;-56
2022/03/26 10:46:02;;;;;;;12.77;6.70;;;;;;;16.25;26.30;97903.03;5006034;28;20594;-56
2022/03/26 10:48:29;;;;;;;15.13;7.47;;;;;;;16.29;26.32;97931.84;5005948;28;20050;-56
2022/03/26 10:51:00;;;;;;;11.95;6.70;;;;;;;16.53;26.75;97930.47;5004373;28;20046;-56
2022/03/26 10:53:35;;;;;;;9.45;7.32;;;;;;;16.83;26.51;97930.28;5006202;28;20050;-57
2022/03/26 10:56:22;;;;;;;12.70;7.78;;;;;;;17.17;25.98;97906.47;5005412;28;20050;-56
2022/03/26 10:58:49;;;;;;;11.00;7.80;;;;;;;17.43;25.81;97917.44;5006073;28;20239;-56
2022/03/26 11:01:15;;;;;;;11.18;6.75;;;;;;;17.60;25.20;97919.53;5005529;28;20378;-65
2022/03/26 11:03:43;;;;;;;13.93;7.30;;;;;;;17.03;25.68;97870.84;5005609;28;20459;-65
2022/03/26 11:06:10;;;;;;;9.70;6.78;;;;;;;17.40;25.09;97912.63;5005340;28;20502;-57
2022/03/26 11:08:38;;;;;;;10.88;7.05;;;;;;;17.51;25.59;97916.28;5005796;28;20058;-66
2022/03/26 11:11:10;;;;;;;10.68;6.60;;;;;;;17.51;25.46;97914.31;5005320;28;20145;-65
2022/03/26 11:13:42;;;;;;;15.82;7.18;;;;;;;17.32;25.17;97891.38;5005649;28;20058;-65
2022/03/26 11:16:16;;;;;;;11.18;7.68;;;;;;;16.80;26.00;97838.72;5005420;28;20077;-59
2022/03/26 11:18:52;;;;;;;10.60;7.15;;;;;;;17.34;25.29;97897.38;4994486;28;20049;-56
2022/03/26 11:21:37;;;;;;;12.25;7.45;;;;;;;16.86;26.19;97893.13;5005546;28;20136;-65
2022/03/26 11:24:06;;;;;;;11.15;7.80;;;;;;;17.17;26.34;97893.28;5004961;28;20057;-57
2022/03/26 11:27:01;;;;;;;10.02;7.30;;;;;;;17.32;25.00;97894.16;5003901;28;20083;-57
2022/03/26 11:29:31;;;;;;;10.65;6.97;;;;;;;17.32;25.74;97882.97;5019634;28;20423;-57
2022/03/26 11:32:26;;;;;;;9.30;7.20;;;;;;;17.32;24.68;97866.16;5005001;28;20076;-65